sensor_id;sensor_type;location;lat;lon;timestamp;temperature;humidity
13652;DHT22;6899;51.546;6.912;2023-09-19T00:00:21;14.60;99.90
13652;DHT22;6899;51.546;6.912;2023-09-19T00:02:54;14.60;99.90
13652;DHT22;6899;51.546;6.912;2023-09-19T00:05:22;14.60;99.90
13652;DHT22;6899;51.546;6.912;2023-09-19T00:07:55;14.60;99.90
13652;DHT22;6899;51.546;6.912;2023-09-19T00:10:24;14.40;99.90
13652;DHT22;6899;51.546;6.912;2023-09-19T00:12:53;14.40;99.90
13652;DHT22;6899;51.546;6.912;2023-09-19T00:15:23;14.50;99.90
13652;DHT22;6899;51.546;6.912;2023-09-19T00:17:51;14.60;99.90
13652;DHT22;6899;51.546;6.912;2023-09-19T00:20:18;14.50;99.90
13652;DHT22;6899;51.546;6.912;2023-09-19T00:22:48;14.50;99.90
13652;DHT22;6899;51.546;6.912;2023-09-19T00:25:15;14.40;99.90
13652;DHT22;6899;51.546;6.912;2023-09-19T00:27:42;14.40;99.90
13652;DHT22;6899;51.546;6.912;2023-09-19T00:30:12;14.30;99.90
13652;DHT22;6899;51.546;6.912;2023-09-19T00:32:47;14.40;99.90
13652;DHT22;6899;51.546;6.912;2023-09-19T00:35:14;14.30;99.90
13652;DHT22;6899;51.546;6.912;2023-09-19T00:37:41;14.30;99.90
13652;DHT22;6899;51.546;6.912;2023-09-19T00:40:09;14.30;99.90
13652;DHT22;6899;51.546;6.912;2023-09-19T00:42:38;14.30;99.90
13652;DHT22;6899;51.546;6.912;2023-09-19T00:45:06;14.30;99.90
13652;DHT22;6899;51.546;6.912;2023-09-19T00:47:35;14.40;99.90
13652;DHT22;6899;51.546;6.912;2023-09-19T00:50:04;14.30;99.90
13652;DHT22;6899;51.546;6.912;2023-09-19T00:52:33;14.40;99.90
13652;DHT22;6899;51.546;6.912;2023-09-19T00:55:02;14.30;99.90
13652;DHT22;6899;51.546;6.912;2023-09-19T00:57:30;14.30;99.90
13652;DHT22;6899;51.546;6.912;2023-09-19T01:00:00;14.30;99.90
13652;DHT22;6899;51.546;6.912;2023-09-19T01:02:31;14.20;99.90
13652;DHT22;6899;51.546;6.912;2023-09-19T01:04:58;14.10;99.90
13652;DHT22;6899;51.546;6.912;2023-09-19T01:07:26;14.10;99.90
13652;DHT22;6899;51.546;6.912;2023-09-19T01:09:55;14.10;99.90
13652;DHT22;6899;51.546;6.912;2023-09-19T01:12:33;14.10;99.90
13652;DHT22;6899;51.546;6.912;2023-09-19T01:15:11;14.00;99.90
13652;DHT22;6899;51.546;6.912;2023-09-19T01:17:46;14.00;99.90
13652;DHT22;6899;51.546;6.912;2023-09-19T01:20:22;13.90;99.90
13652;DHT22;6899;51.546;6.912;2023-09-19T01:23:02;13.90;99.90
13652;DHT22;6899;51.546;6.912;2023-09-19T01:25:52;13.90;99.90
13652;DHT22;6899;51.546;6.912;2023-09-19T01:28:31;13.90;99.90
13652;DHT22;6899;51.546;6.912;2023-09-19T01:31:04;13.90;99.90
13652;DHT22;6899;51.546;6.912;2023-09-19T01:33:56;13.80;99.90
13652;DHT22;6899;51.546;6.912;2023-09-19T01:36:28;13.90;99.90
13652;DHT22;6899;51.546;6.912;2023-09-19T01:38:57;13.90;99.90
13652;DHT22;6899;51.546;6.912;2023-09-19T01:41:37;13.90;99.90
13652;DHT22;6899;51.546;6.912;2023-09-19T01:44:06;14.00;99.90
13652;DHT22;6899;51.546;6.912;2023-09-19T01:46:40;13.90;99.90
13652;DHT22;6899;51.546;6.912;2023-09-19T01:49:18;13.90;99.90
13652;DHT22;6899;51.546;6.912;2023-09-19T01:52:03;13.80;99.90
13652;DHT22;6899;51.546;6.912;2023-09-19T01:54:36;13.70;99.90
13652;DHT22;6899;51.546;6.912;2023-09-19T01:57:09;13.70;99.90
13652;DHT22;6899;51.546;6.912;2023-09-19T01:59:43;13.70;99.90
13652;DHT22;6899;51.546;6.912;2023-09-19T02:02:14;13.70;99.90
13652;DHT22;6899;51.546;6.912;2023-09-19T02:04:41;13.60;99.90
13652;DHT22;6899;51.546;6.912;2023-09-19T02:07:08;13.60;99.90
13652;DHT22;6899;51.546;6.912;2023-09-19T02:09:35;13.50;99.90
13652;DHT22;6899;51.546;6.912;2023-09-19T02:12:05;13.50;99.90
13652;DHT22;6899;51.546;6.912;2023-09-19T02:14:32;13.50;99.90
13652;DHT22;6899;51.546;6.912;2023-09-19T02:17:01;13.50;99.90
13652;DHT22;6899;51.546;6.912;2023-09-19T02:19:30;13.50;99.90
13652;DHT22;6899;51.546;6.912;2023-09-19T02:21:59;13.40;99.90
13652;DHT22;6899;51.546;6.912;2023-09-19T02:24:28;13.50;99.90
13652;DHT22;6899;51.546;6.912;2023-09-19T02:26:55;13.50;99.90
13652;DHT22;6899;51.546;6.912;2023-09-19T02:29:22;13.50;99.90
13652;DHT22;6899;51.546;6.912;2023-09-19T02:31:50;13.50;99.90
13652;DHT22;6899;51.546;6.912;2023-09-19T02:34:17;13.40;99.90
13652;DHT22;6899;51.546;6.912;2023-09-19T02:36:46;13.40;99.90
13652;DHT22;6899;51.546;6.912;2023-09-19T02:39:13;13.30;99.90
13652;DHT22;6899;51.546;6.912;2023-09-19T02:41:40;13.30;99.90
13652;DHT22;6899;51.546;6.912;2023-09-19T02:44:07;13.30;99.90
13652;DHT22;6899;51.546;6.912;2023-09-19T02:46:34;13.40;99.90
13652;DHT22;6899;51.546;6.912;2023-09-19T02:49:02;13.30;99.90
13652;DHT22;6899;51.546;6.912;2023-09-19T02:51:30;13.30;99.90
13652;DHT22;6899;51.546;6.912;2023-09-19T02:53:59;13.30;99.90
13652;DHT22;6899;51.546;6.912;2023-09-19T02:56:26;13.40;99.90
13652;DHT22;6899;51.546;6.912;2023-09-19T02:58:52;13.40;99.90
13652;DHT22;6899;51.546;6.912;2023-09-19T03:01:20;13.30;99.90
13652;DHT22;6899;51.546;6.912;2023-09-19T03:03:47;13.40;99.90
13652;DHT22;6899;51.546;6.912;2023-09-19T03:06:15;13.50;99.90
13652;DHT22;6899;51.546;6.912;2023-09-19T03:08:45;13.40;99.90
13652;DHT22;6899;51.546;6.912;2023-09-19T03:11:15;13.30;99.90
13652;DHT22;6899;51.546;6.912;2023-09-19T03:13:44;13.30;99.90
13652;DHT22;6899;51.546;6.912;2023-09-19T03:16:11;13.40;99.90
13652;DHT22;6899;51.546;6.912;2023-09-19T03:18:40;13.40;99.90
13652;DHT22;6899;51.546;6.912;2023-09-19T03:21:07;13.50;99.90
13652;DHT22;6899;51.546;6.912;2023-09-19T03:23:34;13.50;99.90
13652;DHT22;6899;51.546;6.912;2023-09-19T03:26:01;13.50;99.90
13652;DHT22;6899;51.546;6.912;2023-09-19T03:28:33;13.40;99.90
13652;DHT22;6899;51.546;6.912;2023-09-19T03:31:01;13.30;99.90
13652;DHT22;6899;51.546;6.912;2023-09-19T03:33:28;13.30;99.90
13652;DHT22;6899;51.546;6.912;2023-09-19T03:35:57;13.30;99.90
13652;DHT22;6899;51.546;6.912;2023-09-19T03:38:24;13.30;99.90
13652;DHT22;6899;51.546;6.912;2023-09-19T03:40:51;13.20;99.90
13652;DHT22;6899;51.546;6.912;2023-09-19T03:43:18;13.10;99.90
13652;DHT22;6899;51.546;6.912;2023-09-19T03:45:47;13.20;99.90
13652;DHT22;6899;51.546;6.912;2023-09-19T03:48:14;13.10;99.90
13652;DHT22;6899;51.546;6.912;2023-09-19T03:50:41;13.00;99.90
13652;DHT22;6899;51.546;6.912;2023-09-19T03:53:09;13.00;99.90
13652;DHT22;6899;51.546;6.912;2023-09-19T03:55:36;12.90;99.90
13652;DHT22;6899;51.546;6.912;2023-09-19T03:58:04;13.00;99.90
13652;DHT22;6899;51.546;6.912;2023-09-19T04:00:31;13.00;99.90
13652;DHT22;6899;51.546;6.912;2023-09-19T04:02:59;12.90;99.90
13652;DHT22;6899;51.546;6.912;2023-09-19T04:05:27;12.90;99.90
13652;DHT22;6899;51.546;6.912;2023-09-19T04:07:54;12.80;99.90
13652;DHT22;6899;51.546;6.912;2023-09-19T04:10:21;12.80;99.90
13652;DHT22;6899;51.546;6.912;2023-09-19T04:12:51;12.80;99.90
13652;DHT22;6899;51.546;6.912;2023-09-19T04:15:19;12.80;99.90
13652;DHT22;6899;51.546;6.912;2023-09-19T04:17:47;12.80;99.90
13652;DHT22;6899;51.546;6.912;2023-09-19T04:20:16;12.80;99.90
13652;DHT22;6899;51.546;6.912;2023-09-19T04:22:44;12.90;99.90
13652;DHT22;6899;51.546;6.912;2023-09-19T04:25:11;12.90;99.90
13652;DHT22;6899;51.546;6.912;2023-09-19T04:27:37;12.90;99.90
13652;DHT22;6899;51.546;6.912;2023-09-19T04:30:06;13.00;99.90
13652;DHT22;6899;51.546;6.912;2023-09-19T04:32:37;13.00;99.90
13652;DHT22;6899;51.546;6.912;2023-09-19T04:35:05;13.10;99.90
13652;DHT22;6899;51.546;6.912;2023-09-19T04:37:36;13.00;99.90
13652;DHT22;6899;51.546;6.912;2023-09-19T04:40:04;13.00;99.90
13652;DHT22;6899;51.546;6.912;2023-09-19T04:42:31;13.10;99.90
13652;DHT22;6899;51.546;6.912;2023-09-19T04:44:58;13.10;99.90
13652;DHT22;6899;51.546;6.912;2023-09-19T04:47:25;13.00;99.90
13652;DHT22;6899;51.546;6.912;2023-09-19T04:49:52;13.10;99.90
13652;DHT22;6899;51.546;6.912;2023-09-19T04:52:19;13.10;99.90
13652;DHT22;6899;51.546;6.912;2023-09-19T04:54:47;13.10;99.90
13652;DHT22;6899;51.546;6.912;2023-09-19T04:57:14;13.20;99.90
13652;DHT22;6899;51.546;6.912;2023-09-19T04:59:41;13.20;99.90
13652;DHT22;6899;51.546;6.912;2023-09-19T05:02:08;13.20;99.90
13652;DHT22;6899;51.546;6.912;2023-09-19T05:04:35;13.20;99.90
13652;DHT22;6899;51.546;6.912;2023-09-19T05:07:03;13.10;99.90
13652;DHT22;6899;51.546;6.912;2023-09-19T05:09:30;13.10;99.90
13652;DHT22;6899;51.546;6.912;2023-09-19T05:12:01;13.20;99.90
13652;DHT22;6899;51.546;6.912;2023-09-19T05:14:27;13.20;99.90
13652;DHT22;6899;51.546;6.912;2023-09-19T05:16:54;13.20;99.90
13652;DHT22;6899;51.546;6.912;2023-09-19T05:19:21;13.20;99.90
13652;DHT22;6899;51.546;6.912;2023-09-19T05:21:48;13.30;99.90
13652;DHT22;6899;51.546;6.912;2023-09-19T05:24:15;13.30;99.90
13652;DHT22;6899;51.546;6.912;2023-09-19T05:26:42;13.30;99.90
13652;DHT22;6899;51.546;6.912;2023-09-19T05:29:11;13.20;99.90
13652;DHT22;6899;51.546;6.912;2023-09-19T05:31:38;13.30;99.90
13652;DHT22;6899;51.546;6.912;2023-09-19T05:34:06;13.40;99.90
13652;DHT22;6899;51.546;6.912;2023-09-19T05:36:33;13.40;99.90
13652;DHT22;6899;51.546;6.912;2023-09-19T05:39:00;13.50;99.90
13652;DHT22;6899;51.546;6.912;2023-09-19T05:41:27;13.60;99.90
13652;DHT22;6899;51.546;6.912;2023-09-19T05:43:54;13.60;99.90
13652;DHT22;6899;51.546;6.912;2023-09-19T05:46:22;13.70;99.90
13652;DHT22;6899;51.546;6.912;2023-09-19T05:48:49;13.90;99.90
13652;DHT22;6899;51.546;6.912;2023-09-19T05:51:15;14.00;99.90
13652;DHT22;6899;51.546;6.912;2023-09-19T05:53:43;14.10;99.90
13652;DHT22;6899;51.546;6.912;2023-09-19T05:56:13;14.20;99.90
13652;DHT22;6899;51.546;6.912;2023-09-19T05:58:40;14.20;99.90
13652;DHT22;6899;51.546;6.912;2023-09-19T06:01:09;14.30;99.90
13652;DHT22;6899;51.546;6.912;2023-09-19T06:03:38;14.40;99.90
13652;DHT22;6899;51.546;6.912;2023-09-19T06:06:05;14.50;99.90
13652;DHT22;6899;51.546;6.912;2023-09-19T06:08:32;14.50;99.90
13652;DHT22;6899;51.546;6.912;2023-09-19T06:10:59;14.60;99.90
13652;DHT22;6899;51.546;6.912;2023-09-19T06:13:28;14.60;99.90
13652;DHT22;6899;51.546;6.912;2023-09-19T06:15:55;14.80;99.90
13652;DHT22;6899;51.546;6.912;2023-09-19T06:18:24;14.80;99.90
13652;DHT22;6899;51.546;6.912;2023-09-19T06:20:53;14.70;99.90
13652;DHT22;6899;51.546;6.912;2023-09-19T06:23:21;14.70;99.90
13652;DHT22;6899;51.546;6.912;2023-09-19T06:25:48;14.70;99.90
13652;DHT22;6899;51.546;6.912;2023-09-19T06:28:15;14.70;99.90
13652;DHT22;6899;51.546;6.912;2023-09-19T06:30:45;14.80;99.90
13652;DHT22;6899;51.546;6.912;2023-09-19T06:33:13;14.90;99.90
13652;DHT22;6899;51.546;6.912;2023-09-19T06:35:41;15.00;99.90
13652;DHT22;6899;51.546;6.912;2023-09-19T06:38:11;14.90;99.90
13652;DHT22;6899;51.546;6.912;2023-09-19T06:40:38;15.00;99.90
13652;DHT22;6899;51.546;6.912;2023-09-19T06:43:10;15.00;99.90
13652;DHT22;6899;51.546;6.912;2023-09-19T06:45:37;15.10;99.90
13652;DHT22;6899;51.546;6.912;2023-09-19T06:48:04;15.10;99.90
13652;DHT22;6899;51.546;6.912;2023-09-19T06:50:32;15.20;99.90
13652;DHT22;6899;51.546;6.912;2023-09-19T06:53:00;15.20;99.90
13652;DHT22;6899;51.546;6.912;2023-09-19T06:55:28;15.20;99.90
13652;DHT22;6899;51.546;6.912;2023-09-19T06:57:57;15.30;99.90
13652;DHT22;6899;51.546;6.912;2023-09-19T07:00:24;15.20;99.90
13652;DHT22;6899;51.546;6.912;2023-09-19T07:02:57;15.30;99.90
13652;DHT22;6899;51.546;6.912;2023-09-19T07:05:26;15.50;99.90
13652;DHT22;6899;51.546;6.912;2023-09-19T07:07:54;15.50;99.90
13652;DHT22;6899;51.546;6.912;2023-09-19T07:10:22;15.60;99.90
13652;DHT22;6899;51.546;6.912;2023-09-19T07:12:56;15.60;99.90
13652;DHT22;6899;51.546;6.912;2023-09-19T07:15:24;15.60;99.90
13652;DHT22;6899;51.546;6.912;2023-09-19T07:17:51;15.60;99.90
13652;DHT22;6899;51.546;6.912;2023-09-19T07:20:19;15.70;99.90
13652;DHT22;6899;51.546;6.912;2023-09-19T07:22:46;15.80;99.90
13652;DHT22;6899;51.546;6.912;2023-09-19T07:25:13;15.90;99.90
13652;DHT22;6899;51.546;6.912;2023-09-19T07:27:40;16.00;99.90
13652;DHT22;6899;51.546;6.912;2023-09-19T07:30:10;16.30;99.90
13652;DHT22;6899;51.546;6.912;2023-09-19T07:32:37;16.20;99.90
13652;DHT22;6899;51.546;6.912;2023-09-19T07:35:06;16.30;99.90
13652;DHT22;6899;51.546;6.912;2023-09-19T07:37:34;16.30;99.90
13652;DHT22;6899;51.546;6.912;2023-09-19T07:40:01;16.60;99.90
13652;DHT22;6899;51.546;6.912;2023-09-19T07:42:32;16.50;99.90
13652;DHT22;6899;51.546;6.912;2023-09-19T07:45:00;16.60;99.90
13652;DHT22;6899;51.546;6.912;2023-09-19T07:47:29;16.60;99.90
13652;DHT22;6899;51.546;6.912;2023-09-19T07:49:58;16.50;99.90
13652;DHT22;6899;51.546;6.912;2023-09-19T07:52:25;16.60;99.90
13652;DHT22;6899;51.546;6.912;2023-09-19T07:54:53;16.70;99.90
13652;DHT22;6899;51.546;6.912;2023-09-19T07:57:20;16.80;99.90
13652;DHT22;6899;51.546;6.912;2023-09-19T07:59:47;16.80;99.90
13652;DHT22;6899;51.546;6.912;2023-09-19T08:02:14;16.70;99.90
13652;DHT22;6899;51.546;6.912;2023-09-19T08:04:44;16.60;99.90
13652;DHT22;6899;51.546;6.912;2023-09-19T08:07:12;16.70;99.90
13652;DHT22;6899;51.546;6.912;2023-09-19T08:09:39;16.70;99.90
13652;DHT22;6899;51.546;6.912;2023-09-19T08:12:06;16.80;99.90
13652;DHT22;6899;51.546;6.912;2023-09-19T08:14:36;17.00;99.90
13652;DHT22;6899;51.546;6.912;2023-09-19T08:17:03;17.20;99.90
13652;DHT22;6899;51.546;6.912;2023-09-19T08:19:31;17.40;99.90
13652;DHT22;6899;51.546;6.912;2023-09-19T08:21:59;17.50;99.90
13652;DHT22;6899;51.546;6.912;2023-09-19T08:24:27;17.30;99.90
13652;DHT22;6899;51.546;6.912;2023-09-19T08:26:54;17.20;99.90
13652;DHT22;6899;51.546;6.912;2023-09-19T08:29:21;17.10;99.90
13652;DHT22;6899;51.546;6.912;2023-09-19T08:31:53;17.30;99.90
13652;DHT22;6899;51.546;6.912;2023-09-19T08:34:20;17.50;99.90
13652;DHT22;6899;51.546;6.912;2023-09-19T08:36:47;17.70;99.90
13652;DHT22;6899;51.546;6.912;2023-09-19T08:39:16;17.70;99.90
13652;DHT22;6899;51.546;6.912;2023-09-19T08:41:44;17.80;99.90
13652;DHT22;6899;51.546;6.912;2023-09-19T08:44:11;17.90;99.90
13652;DHT22;6899;51.546;6.912;2023-09-19T08:46:40;18.00;99.90
13652;DHT22;6899;51.546;6.912;2023-09-19T08:49:13;18.10;99.90
13652;DHT22;6899;51.546;6.912;2023-09-19T08:51:47;18.30;99.90
13652;DHT22;6899;51.546;6.912;2023-09-19T08:54:25;18.70;99.90
13652;DHT22;6899;51.546;6.912;2023-09-19T08:56:54;18.70;99.90
13652;DHT22;6899;51.546;6.912;2023-09-19T08:59:22;18.50;99.90
13652;DHT22;6899;51.546;6.912;2023-09-19T09:01:51;18.60;99.90
13652;DHT22;6899;51.546;6.912;2023-09-19T09:04:20;18.60;99.90
13652;DHT22;6899;51.546;6.912;2023-09-19T09:06:47;18.70;99.90
13652;DHT22;6899;51.546;6.912;2023-09-19T09:09:17;19.00;99.90
13652;DHT22;6899;51.546;6.912;2023-09-19T09:11:45;18.50;99.90
13652;DHT22;6899;51.546;6.912;2023-09-19T09:14:15;18.40;99.90
13652;DHT22;6899;51.546;6.912;2023-09-19T09:16:43;18.70;99.90
13652;DHT22;6899;51.546;6.912;2023-09-19T09:19:10;18.60;99.90
13652;DHT22;6899;51.546;6.912;2023-09-19T09:21:39;19.10;99.90
13652;DHT22;6899;51.546;6.912;2023-09-19T09:24:28;18.90;99.90
13652;DHT22;6899;51.546;6.912;2023-09-19T09:26:57;18.90;99.90
13652;DHT22;6899;51.546;6.912;2023-09-19T09:29:42;19.20;99.90
13652;DHT22;6899;51.546;6.912;2023-09-19T09:32:23;19.10;99.90
13652;DHT22;6899;51.546;6.912;2023-09-19T09:34:52;19.10;99.90
13652;DHT22;6899;51.546;6.912;2023-09-19T09:37:20;18.90;99.90
13652;DHT22;6899;51.546;6.912;2023-09-19T09:39:51;18.90;99.90
13652;DHT22;6899;51.546;6.912;2023-09-19T09:42:32;18.80;99.90
13652;DHT22;6899;51.546;6.912;2023-09-19T09:45:14;18.80;99.90
13652;DHT22;6899;51.546;6.912;2023-09-19T09:47:42;18.90;99.90
13652;DHT22;6899;51.546;6.912;2023-09-19T09:50:26;19.20;99.90
13652;DHT22;6899;51.546;6.912;2023-09-19T09:53:19;19.60;99.90
13652;DHT22;6899;51.546;6.912;2023-09-19T09:56:00;20.00;99.90
13652;DHT22;6899;51.546;6.912;2023-09-19T09:58:30;20.40;99.90
13652;DHT22;6899;51.546;6.912;2023-09-19T10:00:58;20.30;99.90
13652;DHT22;6899;51.546;6.912;2023-09-19T10:03:33;20.00;99.90
13652;DHT22;6899;51.546;6.912;2023-09-19T10:06:06;19.70;99.90
13652;DHT22;6899;51.546;6.912;2023-09-19T10:09:01;19.50;99.90
13652;DHT22;6899;51.546;6.912;2023-09-19T10:11:40;19.30;99.90
13652;DHT22;6899;51.546;6.912;2023-09-19T10:14:11;19.40;99.90
13652;DHT22;6899;51.546;6.912;2023-09-19T10:16:41;19.10;99.90
13652;DHT22;6899;51.546;6.912;2023-09-19T10:19:15;19.20;99.90
13652;DHT22;6899;51.546;6.912;2023-09-19T10:21:42;19.30;99.90
13652;DHT22;6899;51.546;6.912;2023-09-19T10:24:12;19.30;99.90
13652;DHT22;6899;51.546;6.912;2023-09-19T10:26:42;19.30;99.90
13652;DHT22;6899;51.546;6.912;2023-09-19T10:29:13;20.00;99.90
13652;DHT22;6899;51.546;6.912;2023-09-19T10:31:42;20.00;99.90
13652;DHT22;6899;51.546;6.912;2023-09-19T10:34:14;20.30;99.90
13652;DHT22;6899;51.546;6.912;2023-09-19T10:36:44;20.10;99.90
13652;DHT22;6899;51.546;6.912;2023-09-19T10:39:14;20.30;99.90
13652;DHT22;6899;51.546;6.912;2023-09-19T10:41:47;20.30;99.90
13652;DHT22;6899;51.546;6.912;2023-09-19T10:44:22;20.40;99.90
13652;DHT22;6899;51.546;6.912;2023-09-19T10:46:51;20.30;99.90
13652;DHT22;6899;51.546;6.912;2023-09-19T10:49:19;19.90;99.90
13652;DHT22;6899;51.546;6.912;2023-09-19T10:51:46;19.70;99.90
13652;DHT22;6899;51.546;6.912;2023-09-19T10:54:17;19.50;99.90
13652;DHT22;6899;51.546;6.912;2023-09-19T10:56:48;19.40;99.90
13652;DHT22;6899;51.546;6.912;2023-09-19T10:59:17;19.60;99.90
13652;DHT22;6899;51.546;6.912;2023-09-19T11:01:46;19.60;99.90
13652;DHT22;6899;51.546;6.912;2023-09-19T11:04:27;19.50;99.90
13652;DHT22;6899;51.546;6.912;2023-09-19T11:07:02;19.10;99.90
13652;DHT22;6899;51.546;6.912;2023-09-19T11:09:50;19.20;99.90
13652;DHT22;6899;51.546;6.912;2023-09-19T11:12:49;19.20;99.90
13652;DHT22;6899;51.546;6.912;2023-09-19T11:18:52;19.60;99.90
13652;DHT22;6899;51.546;6.912;2023-09-19T11:21:51;19.70;99.90
13652;DHT22;6899;51.546;6.912;2023-09-19T11:24:31;19.90;99.90
13652;DHT22;6899;51.546;6.912;2023-09-19T11:27:13;20.20;99.90
13652;DHT22;6899;51.546;6.912;2023-09-19T11:29:42;20.70;99.90
13652;DHT22;6899;51.546;6.912;2023-09-19T11:32:09;21.10;99.90
13652;DHT22;6899;51.546;6.912;2023-09-19T11:34:50;20.80;99.90
13652;DHT22;6899;51.546;6.912;2023-09-19T11:40:33;21.10;99.90
13652;DHT22;6899;51.546;6.912;2023-09-19T11:43:30;21.00;99.90
13652;DHT22;6899;51.546;6.912;2023-09-19T11:46:08;21.00;99.90
13652;DHT22;6899;51.546;6.912;2023-09-19T11:48:38;21.00;99.90
13652;DHT22;6899;51.546;6.912;2023-09-19T11:51:18;21.20;99.90
13652;DHT22;6899;51.546;6.912;2023-09-19T11:53:48;21.10;99.90
13652;DHT22;6899;51.546;6.912;2023-09-19T11:56:16;21.20;99.90
13652;DHT22;6899;51.546;6.912;2023-09-19T11:58:44;21.10;99.90
13652;DHT22;6899;51.546;6.912;2023-09-19T12:01:13;21.20;99.90
13652;DHT22;6899;51.546;6.912;2023-09-19T12:03:47;21.10;99.90
13652;DHT22;6899;51.546;6.912;2023-09-19T12:06:16;21.10;99.90
13652;DHT22;6899;51.546;6.912;2023-09-19T12:08:44;21.00;99.90
13652;DHT22;6899;51.546;6.912;2023-09-19T12:11:13;20.80;99.90
13652;DHT22;6899;51.546;6.912;2023-09-19T12:13:42;20.90;99.90
13652;DHT22;6899;51.546;6.912;2023-09-19T12:16:14;20.90;99.90
13652;DHT22;6899;51.546;6.912;2023-09-19T12:18:43;20.60;99.90
13652;DHT22;6899;51.546;6.912;2023-09-19T12:21:24;20.80;99.90
13652;DHT22;6899;51.546;6.912;2023-09-19T12:24:11;20.90;99.90
13652;DHT22;6899;51.546;6.912;2023-09-19T12:26:41;20.90;99.90
13652;DHT22;6899;51.546;6.912;2023-09-19T12:29:15;20.90;99.90
13652;DHT22;6899;51.546;6.912;2023-09-19T12:31:51;21.20;99.20
13652;DHT22;6899;51.546;6.912;2023-09-19T12:34:21;20.90;99.20
13652;DHT22;6899;51.546;6.912;2023-09-19T12:37:03;20.80;99.90
13652;DHT22;6899;51.546;6.912;2023-09-19T12:39:31;21.30;99.90
13652;DHT22;6899;51.546;6.912;2023-09-19T12:41:57;21.60;99.90
13652;DHT22;6899;51.546;6.912;2023-09-19T12:44:24;21.60;97.40
13652;DHT22;6899;51.546;6.912;2023-09-19T12:46:51;21.50;97.40
13652;DHT22;6899;51.546;6.912;2023-09-19T12:49:20;21.40;97.00
13652;DHT22;6899;51.546;6.912;2023-09-19T12:51:51;21.40;96.70
13652;DHT22;6899;51.546;6.912;2023-09-19T12:54:22;21.30;97.20
13652;DHT22;6899;51.546;6.912;2023-09-19T12:56:50;21.20;97.10
13652;DHT22;6899;51.546;6.912;2023-09-19T12:59:29;21.20;97.30
13652;DHT22;6899;51.546;6.912;2023-09-19T13:02:04;21.10;96.80
13652;DHT22;6899;51.546;6.912;2023-09-19T13:04:32;21.10;97.90
13652;DHT22;6899;51.546;6.912;2023-09-19T13:07:07;20.90;98.00
13652;DHT22;6899;51.546;6.912;2023-09-19T13:09:34;20.80;97.80
13652;DHT22;6899;51.546;6.912;2023-09-19T13:12:04;21.00;97.30
13652;DHT22;6899;51.546;6.912;2023-09-19T13:14:33;21.20;97.20
13652;DHT22;6899;51.546;6.912;2023-09-19T13:17:06;21.40;96.70
13652;DHT22;6899;51.546;6.912;2023-09-19T13:19:42;21.40;97.20
13652;DHT22;6899;51.546;6.912;2023-09-19T13:22:38;21.60;96.30
13652;DHT22;6899;51.546;6.912;2023-09-19T13:25:06;21.60;97.40
13652;DHT22;6899;51.546;6.912;2023-09-19T13:27:33;21.20;96.90
13652;DHT22;6899;51.546;6.912;2023-09-19T13:30:00;21.10;97.70
13652;DHT22;6899;51.546;6.912;2023-09-19T13:32:27;21.30;98.20
13652;DHT22;6899;51.546;6.912;2023-09-19T13:35:07;21.30;96.10
13652;DHT22;6899;51.546;6.912;2023-09-19T13:37:35;21.20;96.50
13652;DHT22;6899;51.546;6.912;2023-09-19T13:40:18;21.30;96.90
13652;DHT22;6899;51.546;6.912;2023-09-19T13:42:45;20.90;98.00
13652;DHT22;6899;51.546;6.912;2023-09-19T13:45:12;21.00;98.40
13652;DHT22;6899;51.546;6.912;2023-09-19T13:47:41;20.80;98.40
13652;DHT22;6899;51.546;6.912;2023-09-19T13:50:09;20.80;98.30
13652;DHT22;6899;51.546;6.912;2023-09-19T13:52:36;20.60;98.00
13652;DHT22;6899;51.546;6.912;2023-09-19T13:55:04;20.50;98.60
13652;DHT22;6899;51.546;6.912;2023-09-19T13:57:33;20.50;99.60
13652;DHT22;6899;51.546;6.912;2023-09-19T14:00:00;20.60;99.10
13652;DHT22;6899;51.546;6.912;2023-09-19T14:02:27;20.50;99.70
13652;DHT22;6899;51.546;6.912;2023-09-19T14:04:55;20.60;99.40
13652;DHT22;6899;51.546;6.912;2023-09-19T14:07:23;20.40;99.60
13652;DHT22;6899;51.546;6.912;2023-09-19T14:09:51;20.40;99.90
13652;DHT22;6899;51.546;6.912;2023-09-19T14:12:18;20.30;99.80
13652;DHT22;6899;51.546;6.912;2023-09-19T14:14:46;20.30;99.90
13652;DHT22;6899;51.546;6.912;2023-09-19T14:17:13;20.30;99.90
13652;DHT22;6899;51.546;6.912;2023-09-19T14:19:41;20.20;99.90
13652;DHT22;6899;51.546;6.912;2023-09-19T14:22:09;20.40;99.90
13652;DHT22;6899;51.546;6.912;2023-09-19T14:24:36;20.30;99.90
13652;DHT22;6899;51.546;6.912;2023-09-19T14:27:04;20.30;99.90
13652;DHT22;6899;51.546;6.912;2023-09-19T14:29:32;20.10;99.90
13652;DHT22;6899;51.546;6.912;2023-09-19T14:32:00;19.90;99.90
13652;DHT22;6899;51.546;6.912;2023-09-19T14:34:27;19.80;99.90
13652;DHT22;6899;51.546;6.912;2023-09-19T14:36:54;19.90;99.90
13652;DHT22;6899;51.546;6.912;2023-09-19T14:39:21;19.90;99.90
13652;DHT22;6899;51.546;6.912;2023-09-19T14:41:48;20.10;99.90
13652;DHT22;6899;51.546;6.912;2023-09-19T14:44:15;19.90;99.90
13652;DHT22;6899;51.546;6.912;2023-09-19T14:46:42;19.80;99.90
13652;DHT22;6899;51.546;6.912;2023-09-19T14:49:11;19.70;99.90
13652;DHT22;6899;51.546;6.912;2023-09-19T14:51:38;19.80;99.90
13652;DHT22;6899;51.546;6.912;2023-09-19T14:54:06;19.80;99.90
13652;DHT22;6899;51.546;6.912;2023-09-19T14:56:34;19.80;99.90
13652;DHT22;6899;51.546;6.912;2023-09-19T14:59:00;19.70;99.90
13652;DHT22;6899;51.546;6.912;2023-09-19T15:01:28;19.60;99.90
13652;DHT22;6899;51.546;6.912;2023-09-19T15:03:55;19.40;99.90
13652;DHT22;6899;51.546;6.912;2023-09-19T15:06:23;19.40;99.90
13652;DHT22;6899;51.546;6.912;2023-09-19T15:08:52;19.30;99.90
13652;DHT22;6899;51.546;6.912;2023-09-19T15:11:18;19.30;99.90
13652;DHT22;6899;51.546;6.912;2023-09-19T15:13:47;19.20;99.90
13652;DHT22;6899;51.546;6.912;2023-09-19T15:16:14;19.10;99.90
13652;DHT22;6899;51.546;6.912;2023-09-19T15:18:42;19.10;99.90
13652;DHT22;6899;51.546;6.912;2023-09-19T15:21:11;19.00;99.90
13652;DHT22;6899;51.546;6.912;2023-09-19T15:23:42;19.00;99.90
13652;DHT22;6899;51.546;6.912;2023-09-19T15:26:10;18.90;99.90
13652;DHT22;6899;51.546;6.912;2023-09-19T15:28:38;18.90;99.90
13652;DHT22;6899;51.546;6.912;2023-09-19T15:31:07;19.00;99.90
13652;DHT22;6899;51.546;6.912;2023-09-19T15:33:35;19.20;99.90
13652;DHT22;6899;51.546;6.912;2023-09-19T15:36:03;19.30;99.90
13652;DHT22;6899;51.546;6.912;2023-09-19T15:38:30;19.40;99.90
13652;DHT22;6899;51.546;6.912;2023-09-19T15:40:59;19.40;99.90
13652;DHT22;6899;51.546;6.912;2023-09-19T15:43:26;19.50;99.90
13652;DHT22;6899;51.546;6.912;2023-09-19T15:45:53;19.50;99.90
13652;DHT22;6899;51.546;6.912;2023-09-19T15:48:20;19.50;99.90
13652;DHT22;6899;51.546;6.912;2023-09-19T15:50:47;19.50;99.90
13652;DHT22;6899;51.546;6.912;2023-09-19T15:53:14;19.40;99.90
13652;DHT22;6899;51.546;6.912;2023-09-19T15:55:42;19.20;99.90
13652;DHT22;6899;51.546;6.912;2023-09-19T15:58:12;19.20;99.90
13652;DHT22;6899;51.546;6.912;2023-09-19T16:00:40;19.30;99.90
13652;DHT22;6899;51.546;6.912;2023-09-19T16:03:07;19.20;99.90
13652;DHT22;6899;51.546;6.912;2023-09-19T16:05:35;19.20;99.90
13652;DHT22;6899;51.546;6.912;2023-09-19T16:08:05;19.20;99.90